Tropical Cyclones
[Index]
Main Index Home Page Stock Weather Photos Extreme Storms Discussion Storm News and Storm Chasing Reports Tropical Cyclones / Hurricanes / Typhoons Weather Data and Links Wild Fires / Bushfires Weather Observation Techniques Weather Picture Catalogue Tornado Pictures and Reports Stock Video Footage and DVDs for sale
Season 2015-2016 Tropical Cyclone BOHALE Track Map
Season 2015-2016 Summaries (Operational Data): [AU] [SIO] [SPAC] [SH]
<<- Previous TC | 2015-2016 Season | Next TC ->>

click for intensity scale information  Lat/long Grid: Show Hide

 Date Labels: Show Hide

Operational Tropical Cyclone Data : JTWC Advisories

Name: BOHALE
Number: 1605

06 Dec 2015 18:00 UTC to 16 Dec 2015 18:00 UTC

    date/time    lat    long     hPa   cat  kts
2015-12-06 18    7.0    80.0    1010         15          
2015-12-07 00    7.6    81.2    1006         20          
2015-12-07 06    8.1    79.6    1006         20          
2015-12-07 12    8.5    78.4    1006         20          
2015-12-07 18    9.0    76.9    1007         20          
2015-12-08 00    9.4    75.8    1006         20          
2015-12-08 06    9.8    74.7    1007         20          
2015-12-08 12   10.2    73.9    1007         20          
2015-12-08 18   10.5    73.2    1007         25          
2015-12-09 00   11.1    72.7    1002         25          
2015-12-09 06   11.8    72.3    1004         25          
2015-12-09 12   13.1    72.0    1004         25          
2015-12-09 18   13.7    71.6    1001         25          
2015-12-10 00   14.0    70.8     999         30          
2015-12-10 06   14.4    70.1     996    1    35          
2015-12-10 12   14.6    69.4     996    1    35          
2015-12-10 18   15.6    69.6     989    1    45          
2015-12-11 00   15.9    69.5     993    1    40          
2015-12-11 06   16.5    69.5     993    1    40          
2015-12-11 12   17.3    68.8     996    1    35          
2015-12-11 18   17.9    68.2     996    1    35          
2015-12-12 00   17.9    67.6    1000         30          
2015-12-12 06   18.9    67.7     996    1    35          
2015-12-12 12   19.6    68.1    1000         30          
2015-12-12 18   20.5    67.5    1000         30          
2015-12-13 00   21.6    67.0    1000         30          
2015-12-13 06   22.2    66.8    1004         25          
2015-12-13 12   23.5    66.2    1004         25          
2015-12-13 18   24.5    64.8    1005         20          
2015-12-14 00   24.5    64.8    1005         20          
2015-12-14 06   25.9    65.3    1007         20          
2015-12-14 12   26.9    65.5    1007         20          
2015-12-14 18   27.0    65.6    1007         20          
2015-12-15 00   27.2    65.4    1007         20          
2015-12-15 06   27.4    65.4    1007         20          
2015-12-15 12   27.7    65.3    1007         20          
2015-12-16 00   28.6    65.9    1007         20          
2015-12-16 12   30.4    67.8    1007         20          
2015-12-16 18   32.0    69.8    1007         20          
Winds are 10-min average.

Tropical cyclone tracks developed by Michael Bath using operational warnings and advisories and Google Maps.


[Australian Severe Weather index] [Copyright Notice] [Email Contacts] [Search This Site] [Privacy Policy]
Document: tropical_cyclone_bohale.htm Updated: 2 May 2017